Time;durP1;ratioP1;P1;durP2;ratioP2;P2;SDS_P1;SDS_P2;PMS_P1;PMS_P2;Temp;Humidity;BMP_temperature;BMP_pressure;BME280_temperature;BME280_humidity;BME280_pressure;Samples;Min_cycle;Max_cycle;Signal;HPM_P1;HPM_P2
2023/12/11 05:01:57;;;;;;;24.45;11.50;;;;;;;-0.16;100.00;100091.41;6290665;27;21363;31
2023/12/11 05:05:00;;;;;;;28.50;12.52;;;;;;;-0.33;100.00;100092.69;5290694;33;34217;-88
2023/12/11 05:08:04;;;;;;;27.25;12.55;;;;;;;-0.27;100.00;100094.03;5293912;33;34149;-88
2023/12/11 05:11:07;;;;;;;24.90;11.82;;;;;;;-0.19;100.00;100106.69;5287943;33;34331;-88
2023/12/11 05:14:10;;;;;;;34.15;14.00;;;;;;;0.06;100.00;100127.69;5277352;33;33749;-88
2023/12/11 05:17:13;;;;;;;27.98;13.88;;;;;;;0.04;100.00;100120.81;5269844;33;34026;-87
2023/12/11 05:20:18;;;;;;;28.33;12.23;;;;;;;-0.01;100.00;100114.06;5270336;33;34050;-87
2023/12/11 05:23:21;;;;;;;26.73;11.88;;;;;;;-0.01;100.00;100100.81;5272601;33;33902;-87
2023/12/11 05:26:24;;;;;;;25.17;12.23;;;;;;;-0.04;100.00;100089.62;5284024;33;34976;-87
2023/12/11 05:29:27;;;;;;;29.30;13.30;;;;;;;-0.09;100.00;100071.47;5283745;33;35220;-87
2023/12/11 05:32:30;;;;;;;30.30;11.80;;;;;;;-0.09;100.00;100071.47;5287399;33;33825;-88
2023/12/11 05:35:34;;;;;;;24.90;11.43;;;;;;;-0.06;100.00;100076.53;5271835;33;33918;-87
2023/12/11 05:38:36;;;;;;;27.70;13.93;;;;;;;0.14;100.00;100090.03;5300598;33;34469;-87
2023/12/11 05:41:39;;;;;;;26.83;12.00;;;;;;;0.03;100.00;100096.16;5283516;33;34440;-87
2023/12/11 05:44:42;;;;;;;25.77;12.20;;;;;;;0.06;100.00;100085.34;5280117;33;33859;-87
2023/12/11 05:47:46;;;;;;;28.23;12.50;;;;;;;-0.01;100.00;100070.87;5291290;33;33974;-87
2023/12/11 05:50:49;;;;;;;31.77;11.98;;;;;;;0.05;100.00;100065.09;5281603;33;33556;-87
2023/12/11 05:53:52;;;;;;;27.30;12.55;;;;;;;0.21;100.00;100049.72;5280576;33;34444;-91
2023/12/11 05:56:55;;;;;;;22.15;11.12;;;;;;;0.04;100.00;100039.63;5271987;33;34939;-92
2023/12/11 05:59:59;;;;;;;23.75;11.55;;;;;;;-0.02;100.00;100040.94;5274494;33;33814;-91
2023/12/11 06:03:02;;;;;;;24.50;11.20;;;;;;;0.01;100.00;100042.50;5291570;33;34143;-89
2023/12/11 06:06:14;;;;;;;22.58;11.05;;;;;;;0.24;100.00;100090.19;5278125;33;34502;-87
2023/12/11 06:09:17;;;;;;;25.62;12.25;;;;;;;0.23;100.00;100091.97;5297681;33;34620;-88
2023/12/11 06:12:20;;;;;;;24.63;12.23;;;;;;;0.46;100.00;100079.56;5277425;33;35266;-88
2023/12/11 06:15:23;;;;;;;23.45;11.55;;;;;;;0.46;100.00;100082.22;5290798;33;34199;-88
2023/12/11 06:18:27;;;;;;;27.37;11.68;;;;;;;0.42;100.00;100080.78;5280000;33;34581;-87
2023/12/11 06:21:30;;;;;;;24.02;12.63;;;;;;;0.37;100.00;100081.13;5286045;33;33482;-88
2023/12/11 06:24:33;;;;;;;27.87;12.40;;;;;;;0.51;100.00;100089.81;5281309;33;33456;-87
2023/12/11 06:27:36;;;;;;;25.65;11.63;;;;;;;0.50;100.00;100093.41;5307832;33;33712;-87
2023/12/11 06:30:39;;;;;;;27.98;12.05;;;;;;;0.48;100.00;100117.38;5307161;33;35258;-87
2023/12/11 06:33:42;;;;;;;24.00;11.68;;;;;;;0.58;100.00;100126.28;5294080;33;33759;-87
2023/12/11 06:36:46;;;;;;;25.80;11.45;;;;;;;0.55;100.00;100120.38;5283142;33;33794;-87
2023/12/11 06:39:49;;;;;;;21.37;11.80;;;;;;;0.51;100.00;100103.91;5295290;33;33624;-87
2023/12/11 06:42:53;;;;;;;20.83;11.43;;;;;;;0.47;100.00;100118.34;5296148;33;33336;-87
2023/12/11 06:45:56;;;;;;;21.37;10.95;;;;;;;0.52;100.00;100104.75;5284968;33;34258;-87
2023/12/11 06:48:59;;;;;;;23.25;11.60;;;;;;;0.54;100.00;100087.75;5297195;33;34885;-87
2023/12/11 06:52:03;;;;;;;23.50;11.15;;;;;;;0.61;100.00;100072.22;5298951;33;33893;-87
2023/12/11 06:55:07;;;;;;;24.55;12.25;;;;;;;0.72;100.00;100066.91;5327294;33;35251;-87
2023/12/11 06:58:10;;;;;;;25.70;11.75;;;;;;;0.61;100.00;100056.34;5327224;33;34158;-87
2023/12/11 07:01:13;;;;;;;30.37;13.02;;;;;;;0.61;100.00;100051.03;5322847;33;33977;-87
2023/12/11 07:04:17;;;;;;;25.65;12.95;;;;;;;0.59;100.00;100048.53;5292517;33;35235;-87
2023/12/11 07:07:20;;;;;;;27.02;12.43;;;;;;;0.59;100.00;100037.94;5308325;33;33772;-88
2023/12/11 07:10:24;;;;;;;26.60;12.30;;;;;;;0.54;100.00;100034.78;5284670;33;33407;-87
2023/12/11 07:13:27;;;;;;;26.12;11.23;;;;;;;0.47;100.00;100033.59;5297678;33;34981;-88
2023/12/11 07:16:33;;;;;;;22.40;12.02;;;;;;;0.58;100.00;100022.97;5285040;33;33386;-87
2023/12/11 07:19:37;;;;;;;26.05;11.00;;;;;;;0.57;100.00;100042.50;5288440;33;33699;-87
2023/12/11 07:22:40;;;;;;;21.17;10.82;;;;;;;0.67;100.00;100064.66;5281764;33;33458;-88
2023/12/11 07:25:43;;;;;;;25.27;12.45;;;;;;;0.71;100.00;100059.94;5290881;33;34233;-86
2023/12/11 07:28:46;;;;;;;20.12;11.20;;;;;;;0.77;100.00;100058.63;5278094;33;33503;-87
2023/12/11 07:31:50;;;;;;;21.65;10.88;;;;;;;0.84;100.00;100049.19;5283463;33;33968;-87
2023/12/11 07:34:53;;;;;;;17.67;10.18;;;;;;;0.99;100.00;100034.69;5278240;33;33565;-85
2023/12/11 07:37:56;;;;;;;25.58;11.50;;;;;;;0.88;100.00;100045.34;5284355;33;34381;-88
2023/12/11 07:41:00;;;;;;;19.60;10.02;;;;;;;1.08;100.00;100094.94;5314955;33;33420;-87
2023/12/11 07:44:07;;;;;;;19.87;10.30;;;;;;;1.22;100.00;100115.00;5295674;33;33730;-86
2023/12/11 07:47:10;;;;;;;19.85;9.98;;;;;;;1.28;100.00;100097.75;5310104;33;34851;-86
2023/12/11 07:50:14;;;;;;;17.50;9.23;;;;;;;1.23;100.00;100092.00;5299449;33;33644;-87
2023/12/11 07:53:17;;;;;;;24.70;10.65;;;;;;;1.25;100.00;100084.75;5321083;33;34196;-86
2023/12/11 07:56:21;;;;;;;22.80;9.98;;;;;;;1.27;100.00;100082.84;5306724;33;35117;-86
2023/12/11 07:59:25;;;;;;;18.70;10.13;;;;;;;1.37;100.00;100059.88;5304387;33;34143;-88
2023/12/11 08:02:28;;;;;;;23.10;10.63;;;;;;;1.50;100.00;100049.12;5299470;33;35447;-90
2023/12/11 08:05:31;;;;;;;17.35;8.82;;;;;;;1.37;100.00;100041.31;5298628;33;35373;-91
2023/12/11 08:08:40;;;;;;;21.17;9.27;;;;;;;1.33;100.00;100034.59;5298722;33;35299;-88
2023/12/11 08:11:43;;;;;;;19.87;9.55;;;;;;;1.31;100.00;100040.00;5299278;33;34029;-87
2023/12/11 08:14:46;;;;;;;18.65;8.27;;;;;;;1.35;100.00;100043.28;5312261;33;34021;-86
2023/12/11 08:17:51;;;;;;;14.18;8.40;;;;;;;1.38;100.00;100027.09;5304423;33;34057;-86
2023/12/11 08:20:54;;;;;;;20.10;9.43;;;;;;;1.34;100.00;100023.84;5302643;33;32712;-87
2023/12/11 08:23:57;;;;;;;19.83;9.50;;;;;;;1.44;100.00;100009.84;5287300;33;34180;-86
2023/12/11 08:27:07;;;;;;;24.17;10.57;;;;;;;1.44;100.00;99992.09;5297542;33;33988;-86
2023/12/11 08:30:11;;;;;;;23.15;11.35;;;;;;;1.46;100.00;99984.84;5279969;33;34894;-86
2023/12/11 08:33:14;;;;;;;23.85;11.43;;;;;;;1.28;100.00;99973.97;5296950;33;35909;-86
2023/12/11 08:36:18;;;;;;;30.85;11.05;;;;;;;1.16;100.00;99961.75;5297386;33;34258;-86
2023/12/11 08:39:21;;;;;;;23.20;11.77;;;;;;;1.17;100.00;99957.28;5298427;33;33805;-86
2023/12/11 08:42:25;;;;;;;24.60;11.05;;;;;;;1.21;100.00;99951.59;5288081;33;33528;-86
2023/12/11 08:45:29;;;;;;;22.75;10.75;;;;;;;1.22;100.00;99978.94;5289534;33;34333;-86
2023/12/11 08:48:32;;;;;;;23.87;10.77;;;;;;;1.28;100.00;99992.53;5284351;33;35443;-86
2023/12/11 08:51:35;;;;;;;24.63;12.15;;;;;;;1.50;100.00;99993.41;5295247;33;33699;-86
2023/12/11 08:54:39;;;;;;;21.75;10.88;;;;;;;1.48;100.00;99990.88;5296800;33;34470;-86
2023/12/11 08:57:44;;;;;;;19.48;10.38;;;;;;;1.40;100.00;100001.28;5295045;33;34142;-86
2023/12/11 09:00:48;;;;;;;22.90;12.20;;;;;;;1.33;100.00;100002.75;5281816;33;33164;-86
2023/12/11 09:03:51;;;;;;;21.08;11.02;;;;;;;1.41;100.00;99999.50;5297830;33;34792;-86
2023/12/11 09:06:54;;;;;;;21.10;11.43;;;;;;;1.53;100.00;99998.44;5295906;33;34516;-87
2023/12/11 09:09:57;;;;;;;27.17;11.85;;;;;;;1.72;100.00;99981.78;5290928;33;33994;-87
2023/12/11 09:13:01;;;;;;;24.10;11.73;;;;;;;1.68;100.00;99985.69;5291663;33;33755;-87
2023/12/11 09:16:04;;;;;;;28.87;11.98;;;;;;;1.60;100.00;99978.37;5314392;33;34431;-87
2023/12/11 09:19:08;;;;;;;25.12;13.10;;;;;;;1.73;100.00;99973.72;5313057;33;33598;-87
2023/12/11 09:22:12;;;;;;;25.90;12.23;;;;;;;1.70;100.00;99973.16;5292278;33;33455;-87
2023/12/11 09:25:16;;;;;;;25.70;12.23;;;;;;;1.61;100.00;99980.06;5314536;33;33894;-87
2023/12/11 09:28:19;;;;;;;28.58;12.30;;;;;;;1.58;100.00;99978.53;5294441;33;33719;-87
2023/12/11 09:31:24;;;;;;;23.67;12.88;;;;;;;1.51;100.00;99973.84;5308990;33;34656;-88
2023/12/11 09:34:27;;;;;;;27.67;14.80;;;;;;;1.60;100.00;99978.37;5319630;33;34228;-87
2023/12/11 09:37:31;;;;;;;30.62;15.52;;;;;;;1.71;100.00;99972.16;5292705;33;34768;-88
2023/12/11 09:40:35;;;;;;;30.05;14.60;;;;;;;1.75;100.00;99970.91;5301735;33;34722;-87
2023/12/11 09:43:38;;;;;;;31.35;14.52;;;;;;;1.97;100.00;99959.31;5322382;33;34133;-87
2023/12/11 09:46:47;;;;;;;22.83;12.80;;;;;;;1.95;100.00;99946.16;5311272;33;33554;-86
2023/12/11 09:49:51;;;;;;;24.15;13.20;;;;;;;1.96;100.00;99949.66;5308964;33;33743;-87
2023/12/11 09:52:56;;;;;;;24.75;13.05;;;;;;;2.21;100.00;99945.69;5305511;33;34739;-87
2023/12/11 09:55:59;;;;;;;27.10;11.90;;;;;;;2.31;100.00;99957.22;5304707;33;35322;-88
2023/12/11 09:59:02;;;;;;;29.08;13.00;;;;;;;2.43;100.00;99964.09;5302925;33;34318;-88
2023/12/11 10:02:11;;;;;;;24.12;12.05;;;;;;;2.63;100.00;99959.66;5302407;33;34261;-88
2023/12/11 10:05:23;;;;;;;26.90;12.02;;;;;;;2.71;100.00;99957.13;5312430;33;34083;-85
2023/12/11 10:08:26;;;;;;;24.05;12.20;;;;;;;2.79;100.00;99961.78;5314290;33;33552;-87
2023/12/11 10:11:30;;;;;;;27.10;12.07;;;;;;;2.85;100.00;99949.75;5312904;33;33925;-86
2023/12/11 10:14:33;;;;;;;23.65;12.02;;;;;;;2.76;100.00;99950.59;5321188;33;35259;-86
2023/12/11 10:17:36;;;;;;;25.08;13.57;;;;;;;2.74;100.00;99948.06;5291268;33;34448;-87
2023/12/11 10:20:41;;;;;;;25.30;12.15;;;;;;;2.73;100.00;99941.91;5317652;33;34317;-87
2023/12/11 10:24:04;;;;;;;24.00;11.93;;;;;;;2.67;100.00;99945.13;5314776;33;34093;-87
2023/12/11 10:27:07;;;;;;;23.12;11.90;;;;;;;2.79;100.00;99935.19;5312126;33;33821;-87
2023/12/11 10:30:12;;;;;;;25.20;12.52;;;;;;;2.88;100.00;99928.19;5303263;33;33957;-87
2023/12/11 10:33:16;;;;;;;28.77;13.43;;;;;;;2.86;100.00;99930.16;5292589;33;34157;-87
2023/12/11 10:36:20;;;;;;;27.05;12.75;;;;;;;3.15;100.00;99924.84;5310372;33;34795;-86
2023/12/11 10:39:23;;;;;;;29.63;13.43;;;;;;;3.41;100.00;99923.25;5301990;33;33454;-87
2023/12/11 10:42:29;;;;;;;23.85;13.10;;;;;;;3.54;100.00;99925.63;5316090;33;33984;-87
2023/12/11 10:45:33;;;;;;;23.27;12.23;;;;;;;3.53;100.00;99913.28;5299555;33;34300;-87
2023/12/11 10:48:37;;;;;;;26.15;13.20;;;;;;;3.79;100.00;99897.50;5299454;33;33707;-87
2023/12/11 10:51:41;;;;;;;25.88;12.60;;;;;;;3.76;100.00;99884.50;5302184;33;34883;-87
2023/12/11 10:54:45;;;;;;;26.37;13.10;;;;;;;3.88;100.00;99887.81;5309913;33;33863;-87
2023/12/11 10:57:50;;;;;;;25.75;13.45;;;;;;;3.65;100.00;99887.31;5297595;33;33518;-87
2023/12/11 11:00:57;;;;;;;24.02;12.35;;;;;;;3.50;100.00;99900.25;5307216;33;34296;-87
2023/12/11 11:04:01;;;;;;;26.77;13.65;;;;;;;3.50;100.00;99907.41;5310313;33;34067;-87
2023/12/11 11:07:26;;;;;;;27.73;13.50;;;;;;;3.58;100.00;99903.03;5309539;33;33054;-87
2023/12/11 11:10:38;;;;;;;26.10;13.20;;;;;;;3.41;100.00;99907.28;5321942;33;34150;-87
2023/12/11 11:14:08;;;;;;;24.02;12.48;;;;;;;3.32;100.00;99899.34;5326108;33;35067;-89
2023/12/11 11:17:11;;;;;;;28.05;13.38;;;;;;;3.36;100.00;99896.25;5307022;33;33591;-87
2023/12/11 11:20:17;;;;;;;25.23;12.68;;;;;;;3.30;100.00;99891.47;5304738;33;33745;-87
2023/12/11 11:23:26;;;;;;;24.02;12.77;;;;;;;3.60;100.00;99878.97;5303348;33;34228;-87
2023/12/11 11:26:35;;;;;;;25.25;12.82;;;;;;;3.52;100.00;99863.72;5311435;33;33345;-87
2023/12/11 11:29:39;;;;;;;24.08;13.18;;;;;;;3.84;100.00;99852.66;5309610;33;33770;-87
2023/12/11 11:32:54;;;;;;;23.15;12.68;;;;;;;3.93;100.00;99839.44;5310957;33;32504;-87
2023/12/11 11:35:59;;;;;;;26.33;13.65;;;;;;;4.12;100.00;99839.31;5304457;33;33759;-87
2023/12/11 11:39:02;;;;;;;26.35;13.68;;;;;;;4.16;100.00;99827.38;5291274;33;34257;-87
2023/12/11 11:42:06;;;;;;;28.38;14.68;;;;;;;4.04;100.00;99804.63;5299809;33;34204;-87
2023/12/11 11:45:11;;;;;;;29.20;14.40;;;;;;;4.83;100.00;99805.69;5312062;33;33970;-87
2023/12/11 11:48:14;;;;;;;29.27;13.88;;;;;;;5.81;100.00;99804.38;5299030;33;34031;-87
2023/12/11 11:51:19;;;;;;;28.52;14.93;;;;;;;6.26;100.00;99810.41;5314276;33;34247;-87
2023/12/11 11:54:23;;;;;;;27.30;14.85;;;;;;;5.85;100.00;99804.91;5313547;33;33807;-87
2023/12/11 11:57:28;;;;;;;26.02;14.93;;;;;;;5.83;100.00;99798.91;5312454;33;33493;-87
2023/12/11 12:00:31;;;;;;;30.00;15.20;;;;;;;5.60;100.00;99791.47;5295485;33;33574;-87
2023/12/11 12:03:42;;;;;;;31.02;14.82;;;;;;;5.38;100.00;99802.69;5311227;33;32653;-87
2023/12/11 12:06:46;;;;;;;30.27;14.55;;;;;;;5.25;100.00;99819.13;5299557;33;33871;-87
2023/12/11 12:09:52;;;;;;;31.62;15.98;;;;;;;5.12;100.00;99824.91;5299533;33;34372;-87
2023/12/11 12:12:59;;;;;;;28.08;16.42;;;;;;;4.98;100.00;99817.47;5300574;33;34086;-87
2023/12/11 12:16:03;;;;;;;27.13;14.50;;;;;;;4.68;100.00;99826.69;5298138;33;33866;-86
2023/12/11 12:19:06;;;;;;;31.45;16.62;;;;;;;4.69;100.00;99809.72;5301726;33;33623;-87
2023/12/11 12:22:13;;;;;;;30.30;15.80;;;;;;;4.46;100.00;99810.19;5309381;33;34619;-87
2023/12/11 12:25:16;;;;;;;30.75;14.93;;;;;;;4.58;100.00;99828.63;5298145;33;33516;-87
2023/12/11 12:28:20;;;;;;;29.75;16.30;;;;;;;4.59;100.00;99838.28;5297442;33;33311;-87
2023/12/11 12:31:23;;;;;;;33.80;16.37;;;;;;;4.58;100.00;99826.78;5289696;33;34646;-87
2023/12/11 12:34:30;;;;;;;32.83;16.58;;;;;;;4.50;100.00;99840.03;5293876;33;35289;-88
2023/12/11 12:37:35;;;;;;;30.77;15.98;;;;;;;4.42;100.00;99827.50;5318166;33;35373;-90
2023/12/11 12:40:39;;;;;;;29.90;15.73;;;;;;;4.41;100.00;99831.13;5301482;33;35527;-87
2023/12/11 12:43:42;;;;;;;29.40;15.70;;;;;;;4.39;100.00;99835.78;5312168;33;33888;-87
2023/12/11 12:46:46;;;;;;;32.53;16.62;;;;;;;4.32;100.00;99824.03;5312142;33;34880;-87
2023/12/11 12:49:49;;;;;;;32.88;16.75;;;;;;;4.25;100.00;99826.47;5312692;33;33795;-87
2023/12/11 12:53:25;;;;;;;28.42;16.25;;;;;;;4.00;100.00;99817.37;5286992;33;34594;-87
2023/12/11 12:56:28;;;;;;;32.35;15.52;;;;;;;3.86;100.00;99844.50;5288308;33;33731;-87
2023/12/11 12:59:32;;;;;;;30.60;15.75;;;;;;;3.81;100.00;99844.97;5299735;33;33843;-87
2023/12/11 13:02:35;;;;;;;36.70;16.77;;;;;;;3.86;100.00;99828.53;5297316;33;33972;-86
2023/12/11 13:05:46;;;;;;;35.58;16.77;;;;;;;3.94;100.00;99793.16;5295253;33;35367;-87
2023/12/11 13:08:49;;;;;;;32.63;16.48;;;;;;;4.15;100.00;99769.75;5306992;33;34383;-87
2023/12/11 13:11:54;;;;;;;33.97;16.17;;;;;;;4.43;100.00;99769.69;5299913;33;33586;-86
2023/12/11 13:14:59;;;;;;;34.25;16.85;;;;;;;4.46;100.00;99786.19;5295953;33;34989;-87
2023/12/11 13:18:02;;;;;;;35.70;16.48;;;;;;;4.17;100.00;99810.41;5288146;33;33409;-86
2023/12/11 13:21:08;;;;;;;29.77;15.25;;;;;;;3.72;100.00;99815.72;5299940;33;34658;-86
2023/12/11 13:24:11;;;;;;;27.02;16.00;;;;;;;3.50;100.00;99815.09;5321212;33;33656;-87
2023/12/11 13:27:15;;;;;;;33.78;16.40;;;;;;;3.27;100.00;99829.75;5309807;33;33503;-87
2023/12/11 13:30:18;;;;;;;32.22;15.73;;;;;;;3.25;100.00;99823.75;5289161;33;33922;-86
2023/12/11 13:33:21;;;;;;;33.65;16.20;;;;;;;3.14;100.00;99833.56;5300492;33;34527;-86
2023/12/11 13:36:24;;;;;;;29.30;14.55;;;;;;;2.91;100.00;99848.16;5300220;33;34073;-86
2023/12/11 13:39:29;;;;;;;55.63;17.40;;;;;;;2.90;100.00;99842.00;5300682;33;33961;-86
2023/12/11 13:42:32;;;;;;;34.10;18.33;;;;;;;2.85;100.00;99825.63;5307584;33;33998;-86
2023/12/11 13:45:35;;;;;;;40.53;16.92;;;;;;;2.90;100.00;99823.41;5302115;33;34187;-86
2023/12/11 13:48:38;;;;;;;38.70;17.55;;;;;;;2.80;100.00;99827.88;5305406;33;33944;-86
2023/12/11 13:51:42;;;;;;;34.95;17.25;;;;;;;2.69;100.00;99836.00;5310186;33;34818;-87
2023/12/11 13:54:45;;;;;;;31.48;16.23;;;;;;;2.71;100.00;99839.34;5311094;33;33938;-87
2023/12/11 13:57:48;;;;;;;33.10;16.05;;;;;;;2.63;100.00;99839.22;5325589;33;33847;-87
2023/12/11 14:00:52;;;;;;;34.78;15.27;;;;;;;2.61;100.00;99834.06;5296353;33;33609;-86
2023/12/11 14:03:55;;;;;;;32.20;15.82;;;;;;;2.51;100.00;99846.47;5304575;33;35324;-87
2023/12/11 14:06:59;;;;;;;37.13;16.87;;;;;;;2.34;100.00;99833.87;5284730;33;33514;-87
2023/12/11 14:10:05;;;;;;;35.85;16.62;;;;;;;2.33;100.00;99825.09;5287375;33;34637;-90
2023/12/11 14:13:12;;;;;;;39.00;17.08;;;;;;;2.36;100.00;99823.97;5312477;33;33970;-91
2023/12/11 14:16:18;;;;;;;30.80;15.05;;;;;;;2.28;100.00;99829.97;5302120;33;33627;-87
2023/12/11 14:19:21;;;;;;;33.97;16.25;;;;;;;2.24;100.00;99812.63;5312903;33;33729;-87
2023/12/11 14:22:26;;;;;;;30.17;15.43;;;;;;;2.23;100.00;99806.50;5321207;33;33819;-87
2023/12/11 14:25:29;;;;;;;34.40;16.08;;;;;;;2.10;100.00;99810.37;5325926;33;33356;-87
2023/12/11 14:28:32;;;;;;;29.63;14.00;;;;;;;2.18;100.00;99824.66;5329231;33;34780;-87
2023/12/11 14:31:35;;;;;;;30.17;13.82;;;;;;;2.10;100.00;99837.75;5323979;33;34800;-87
2023/12/11 14:34:41;;;;;;;29.05;14.18;;;;;;;2.10;100.00;99832.47;5332511;33;34138;-87
2023/12/11 14:37:45;;;;;;;30.17;14.45;;;;;;;2.13;100.00;99820.72;5310884;33;33950;-87
2023/12/11 14:40:48;;;;;;;30.35;14.32;;;;;;;1.94;100.00;99816.22;5273494;33;34253;-87
2023/12/11 14:43:50;;;;;;;35.60;15.38;;;;;;;1.90;100.00;99813.00;5298336;33;34576;-86
2023/12/11 14:46:53;;;;;;;31.30;14.93;;;;;;;1.89;100.00;99815.78;5299986;33;33625;-87
2023/12/11 14:49:57;;;;;;;29.30;13.82;;;;;;;1.73;100.00;99790.63;5298630;33;33748;-87
2023/12/11 14:53:01;;;;;;;30.52;14.65;;;;;;;1.73;100.00;99768.56;5286798;33;33472;-86
2023/12/11 14:56:04;;;;;;;34.35;15.05;;;;;;;1.51;100.00;99781.03;5290546;33;33318;-86
2023/12/11 14:59:08;;;;;;;31.85;14.43;;;;;;;1.45;100.00;99778.94;5283835;33;33824;-86
2023/12/11 15:02:12;;;;;;;30.30;14.63;;;;;;;1.41;100.00;99771.38;5306728;33;34477;-87
2023/12/11 15:05:17;;;;;;;30.10;14.57;;;;;;;1.37;100.00;99778.75;5310560;33;34566;-87
2023/12/11 15:08:20;;;;;;;24.37;14.20;;;;;;;1.29;100.00;99773.31;5313130;33;34500;-87
2023/12/11 15:11:27;;;;;;;28.12;14.68;;;;;;;1.22;100.00;99772.97;5292884;33;33410;-87
2023/12/11 15:14:31;;;;;;;28.35;13.62;;;;;;;1.20;100.00;99771.41;5299635;33;34276;-87
2023/12/11 15:17:35;;;;;;;30.05;12.98;;;;;;;1.27;100.00;99791.16;5302752;33;34258;-87
2023/12/11 15:20:37;;;;;;;30.62;13.62;;;;;;;1.25;100.00;99806.34;5316362;33;160235;-87
2023/12/11 15:23:41;;;;;;;30.45;14.00;;;;;;;1.24;100.00;99800.19;5325590;33;34224;-88
2023/12/11 15:26:43;;;;;;;33.90;14.52;;;;;;;1.25;100.00;99804.53;5323942;33;34391;-87
2023/12/11 15:29:47;;;;;;;32.88;15.77;;;;;;;1.28;100.00;99801.59;5316756;33;34466;-87
2023/12/11 15:32:49;;;;;;;30.20;13.98;;;;;;;1.28;100.00;99801.59;5284646;33;35199;-87
2023/12/11 15:35:53;;;;;;;31.83;14.45;;;;;;;1.27;100.00;99801.75;5282885;33;33757;-87
2023/12/11 15:38:56;;;;;;;33.45;16.08;;;;;;;1.30;100.00;99797.00;5285513;33;33859;-87
2023/12/11 15:41:59;;;;;;;27.73;13.77;;;;;;;1.35;100.00;99800.12;5310376;33;33539;-86
2023/12/11 15:45:02;;;;;;;33.60;16.30;;;;;;;1.34;100.00;99793.13;5292833;33;34752;-86
2023/12/11 15:48:06;;;;;;;32.95;14.87;;;;;;;1.41;100.00;99787.31;5294451;33;33388;-86
2023/12/11 15:51:25;;;;;;;35.40;15.88;;;;;;;1.48;100.00;99799.88;5295815;33;34662;-86
2023/12/11 15:54:28;;;;;;;32.33;16.05;;;;;;;1.40;100.00;99801.53;5293490;33;33949;-86
2023/12/11 15:57:31;;;;;;;34.97;16.12;;;;;;;1.37;100.00;99813.22;5285198;33;35634;-86
2023/12/11 16:00:35;;;;;;;33.72;14.23;;;;;;;1.35;100.00;99781.56;5294164;33;33344;-86
2023/12/11 16:03:38;;;;;;;36.53;15.65;;;;;;;1.32;100.00;99789.78;5293650;33;33855;-89
2023/12/11 16:06:41;;;;;;;36.63;15.07;;;;;;;1.32;100.00;99795.09;5282959;33;34544;-91
2023/12/11 16:09:47;;;;;;;37.50;15.40;;;;;;;1.23;100.00;99784.41;5307370;33;33907;-92
2023/12/11 16:12:50;;;;;;;39.22;16.92;;;;;;;1.29;100.00;99781.25;5294948;33;33431;-88
2023/12/11 16:15:54;;;;;;;34.78;16.70;;;;;;;1.29;100.00;99779.44;5294327;33;33653;-87
2023/12/11 16:18:59;;;;;;;36.22;16.77;;;;;;;1.35;100.00;99784.22;5306506;33;33306;-87
2023/12/11 16:22:03;;;;;;;36.67;15.60;;;;;;;1.28;100.00;99790.16;5308100;33;34201;-87
2023/12/11 16:25:09;;;;;;;32.22;16.37;;;;;;;1.36;100.00;99783.22;5296963;33;34031;-87
2023/12/11 16:28:13;;;;;;;41.53;15.52;;;;;;;1.36;100.00;99779.72;5288515;33;33846;-87
2023/12/11 16:31:23;;;;;;;32.13;14.73;;;;;;;1.43;100.00;99772.06;5287388;33;34199;-87
2023/12/11 16:34:28;;;;;;;35.72;15.80;;;;;;;1.50;100.00;99768.75;5305515;33;34305;-87
2023/12/11 16:37:31;;;;;;;34.30;15.18;;;;;;;1.43;100.00;99775.56;5317392;33;34952;-87
2023/12/11 16:40:35;;;;;;;33.90;16.05;;;;;;;1.30;100.00;99773.16;5306625;33;33758;-87
2023/12/11 16:43:47;;;;;;;37.45;15.25;;;;;;;1.23;100.00;99779.09;5297853;33;33849;-87
2023/12/11 16:46:50;;;;;;;35.50;16.52;;;;;;;1.19;100.00;99770.59;5309320;33;34252;-87
2023/12/11 16:49:53;;;;;;;32.97;15.35;;;;;;;1.18;100.00;99762.78;5296347;33;33364;-87
2023/12/11 16:53:08;;;;;;;36.85;16.77;;;;;;;1.21;100.00;99770.47;5294178;33;33626;-87
2023/12/11 16:56:12;;;;;;;33.03;16.15;;;;;;;1.16;100.00;99792.06;5284933;33;33844;-87
